Time;durP1;ratioP1;P1;durP2;ratioP2;P2;SDS_P1;SDS_P2;PMS_P1;PMS_P2;Temp;Humidity;BMP_temperature;BMP_pressure;BME280_temperature;BME280_humidity;BME280_pressure;Samples;Min_cycle;Max_cycle;Signal;HPM_P1;HPM_P2
2023/03/22 00:02:21;;;;;;;20.77;7.97;;;9.60;99.90;;;;;;5089260;28;20055;-85
2023/03/22 00:05:08;;;;;;;16.90;7.28;;;9.60;99.90;;;;;;5088577;28;20048;-83
2023/03/22 00:07:56;;;;;;;19.17;7.35;;;9.60;99.90;;;;;;5073271;28;20056;-83
2023/03/22 00:10:42;;;;;;;18.58;7.03;;;9.60;99.90;;;;;;5088415;28;20052;-84
2023/03/22 00:13:29;;;;;;;25.83;8.30;;;9.70;99.90;;;;;;5088555;28;20066;-85
2023/03/22 00:16:16;;;;;;;18.83;7.03;;;9.70;99.90;;;;;;5088839;28;20169;-83
2023/03/22 00:19:02;;;;;;;20.30;7.55;;;9.60;99.90;;;;;;5089677;28;20044;-84
2023/03/22 00:21:50;;;;;;;21.08;7.18;;;9.70;99.90;;;;;;5089259;28;20055;-85
2023/03/22 00:24:36;;;;;;;18.33;6.88;;;9.70;99.90;;;;;;5089065;28;20113;-82
2023/03/22 00:27:22;;;;;;;18.40;6.10;;;9.70;99.90;;;;;;5089234;28;20058;-82
2023/03/22 00:30:10;;;;;;;17.10;6.60;;;9.60;99.90;;;;;;5093933;28;20547;-83
2023/03/22 00:32:56;;;;;;;18.25;6.90;;;9.50;99.90;;;;;;5091481;28;20084;-85
2023/03/22 00:35:48;;;;;;;17.48;7.47;;;9.60;99.90;;;;;;5092924;28;20040;-84
2023/03/22 00:38:37;;;;;;;14.80;6.18;;;9.50;99.90;;;;;;5093579;28;20052;-84
2023/03/22 00:41:24;;;;;;;20.90;6.85;;;9.50;99.90;;;;;;5092395;28;20891;-84
2023/03/22 00:44:10;;;;;;;16.60;6.00;;;9.50;99.90;;;;;;5092727;28;20056;-85
2023/03/22 00:46:56;;;;;;;17.67;5.75;;;9.50;99.90;;;;;;5091238;28;20040;-84
2023/03/22 00:49:46;;;;;;;21.02;6.88;;;9.50;99.90;;;;;;5078867;28;20074;-83
2023/03/22 00:52:32;;;;;;;25.30;8.20;;;9.50;99.90;;;;;;5060754;28;20557;-85
2023/03/22 00:55:18;;;;;;;14.85;5.47;;;9.50;99.90;;;;;;5091573;28;20128;-82
2023/03/22 00:58:04;;;;;;;14.38;4.97;;;9.50;99.90;;;;;;5091178;28;20056;-84
2023/03/22 01:00:50;;;;;;;17.27;6.78;;;9.40;99.90;;;;;;5076172;28;20062;-83
2023/03/22 01:03:37;;;;;;;19.10;5.18;;;9.40;99.90;;;;;;5091308;28;20471;-84
2023/03/22 01:06:23;;;;;;;21.30;5.35;;;9.40;99.90;;;;;;5090949;28;20118;-85
2023/03/22 01:09:13;;;;;;;20.23;5.28;;;9.40;99.90;;;;;;5092267;28;20151;-86
2023/03/22 01:12:00;;;;;;;13.55;4.63;;;9.40;99.90;;;;;;5096916;28;20044;-85
2023/03/22 01:14:47;;;;;;;13.57;4.10;;;9.30;99.90;;;;;;5093137;28;20052;-82
2023/03/22 01:17:33;;;;;;;10.00;4.22;;;9.30;99.90;;;;;;5077018;28;20130;-84
2023/03/22 01:20:19;;;;;;;12.00;4.15;;;9.30;99.90;;;;;;5091072;28;20051;-83
2023/03/22 01:23:05;;;;;;;16.17;4.20;;;9.30;99.90;;;;;;5073863;28;20060;-83
2023/03/22 01:25:51;;;;;;;14.90;4.10;;;9.30;99.90;;;;;;5092371;28;20193;-82
2023/03/22 01:28:39;;;;;;;19.75;3.90;;;9.30;99.90;;;;;;5090951;28;20487;-81
2023/03/22 01:31:25;;;;;;;10.77;3.33;;;9.30;99.90;;;;;;5091275;28;20125;-82
2023/03/22 01:34:11;;;;;;;15.35;3.60;;;9.20;99.90;;;;;;5092218;28;20056;-82
2023/03/22 01:36:57;;;;;;;10.27;3.60;;;9.20;99.90;;;;;;5091231;28;20052;-81
2023/03/22 01:39:43;;;;;;;12.13;2.78;;;9.20;99.90;;;;;;5092353;28;20055;-85
2023/03/22 01:42:29;;;;;;;13.50;3.38;;;9.20;99.90;;;;;;5096893;28;20087;-82
2023/03/22 01:45:21;;;;;;;17.13;3.00;;;9.20;99.90;;;;;;5093844;28;20044;-84
2023/03/22 01:48:16;;;;;;;12.98;2.85;;;9.20;99.90;;;;;;5090667;28;20488;-85
2023/03/22 01:51:21;;;;;;;14.50;3.55;;;9.20;99.90;;;;;;5090594;28;20124;-83
2023/03/22 01:54:37;;;;;;;10.95;3.63;;;9.20;99.90;;;;;;5071994;28;20118;-82
2023/03/22 01:57:24;;;;;;;12.95;2.47;;;9.20;99.90;;;;;;5077155;28;20079;-83
2023/03/22 02:00:14;;;;;;;13.73;2.63;;;9.20;99.90;;;;;;5091012;28;20142;-84
2023/03/22 02:03:00;;;;;;;12.13;2.50;;;9.20;99.90;;;;;;5070339;28;20052;-82
2023/03/22 02:05:46;;;;;;;10.60;2.22;;;9.20;99.90;;;;;;5069874;28;20488;-84
2023/03/22 02:08:33;;;;;;;11.73;1.60;;;9.10;99.90;;;;;;5070465;28;20516;-84
2023/03/22 02:11:27;;;;;;;11.40;2.42;;;9.10;99.90;;;;;;5082334;28;20040;-81
2023/03/22 02:14:32;;;;;;;6.25;1.90;;;9.10;99.90;;;;;;5069345;28;20044;-84
2023/03/22 02:17:29;;;;;;;10.95;2.53;;;9.10;99.90;;;;;;5069813;28;20059;-83
2023/03/22 02:20:40;;;;;;;10.80;1.98;;;9.10;99.90;;;;;;5076520;28;20075;-84
2023/03/22 02:23:41;;;;;;;11.80;2.20;;;9.10;99.90;;;;;;5075163;28;20048;-83
2023/03/22 02:26:30;;;;;;;13.02;2.00;;;9.00;99.90;;;;;;5069793;28;20612;-85
2023/03/22 02:29:35;;;;;;;23.70;2.83;;;9.00;99.90;;;;;;5071270;28;20047;-83
2023/03/22 02:33:11;;;;;;;8.25;1.90;;;9.10;99.90;;;;;;5089708;28;20044;-85
2023/03/22 02:36:12;;;;;;;10.55;1.90;;;9.00;99.90;;;;;;5007891;28;20072;-85
2023/03/22 02:39:25;;;;;;;10.45;2.35;;;9.10;99.90;;;;;;5009406;28;20041;-86
2023/03/22 02:42:32;;;;;;;7.65;2.58;;;9.10;99.90;;;;;;5073046;28;20055;-83
2023/03/22 02:45:30;;;;;;;12.77;2.78;;;9.10;99.90;;;;;;5090523;28;20048;-81
2023/03/22 02:48:22;;;;;;;11.35;1.60;;;9.10;99.90;;;;;;5090857;28;20050;-85
2023/03/22 02:51:23;;;;;;;10.52;3.58;;;9.10;99.90;;;;;;5070845;28;20066;-86
2023/03/22 02:54:17;;;;;;;11.73;1.73;;;9.10;99.90;;;;;;5090586;28;20051;-84
2023/03/22 02:57:12;;;;;;;7.38;1.70;;;9.20;99.90;;;;;;5093015;28;20401;-84
2023/03/22 03:00:00;;;;;;;12.57;2.03;;;9.20;99.90;;;;;;5093406;28;20056;-84
2023/03/22 03:02:52;;;;;;;10.07;2.05;;;9.20;99.90;;;;;;5091800;28;20048;-81
2023/03/22 03:05:45;;;;;;;8.15;1.77;;;9.30;99.90;;;;;;5089236;28;20080;-83
2023/03/22 03:08:33;;;;;;;10.10;1.52;;;9.30;99.90;;;;;;5092665;28;20082;-81
2023/03/22 03:11:20;;;;;;;13.55;2.05;;;9.30;99.90;;;;;;5093250;28;20055;-81
2023/03/22 03:14:06;;;;;;;8.98;1.45;;;9.40;99.90;;;;;;5091495;28;20159;-83
2023/03/22 03:17:25;;;;;;;9.68;1.65;;;9.40;99.90;;;;;;5093560;28;20047;-83
2023/03/22 03:20:20;;;;;;;9.63;2.05;;;9.40;99.90;;;;;;5090028;28;20617;-86
2023/03/22 03:23:12;;;;;;;14.80;2.67;;;9.50;99.90;;;;;;5089312;28;20131;-82
2023/03/22 03:26:14;;;;;;;14.35;2.40;;;9.50;99.90;;;;;;5089280;28;20052;-86
2023/03/22 03:29:26;;;;;;;9.00;2.25;;;9.50;99.90;;;;;;5091465;28;20048;-84
2023/03/22 03:32:34;;;;;;;9.80;1.73;;;9.50;99.90;;;;;;5088710;28;20523;-86
2023/03/22 03:35:28;;;;;;;16.58;2.00;;;9.60;99.90;;;;;;5088329;28;20051;-87
2023/03/22 03:38:19;;;;;;;10.90;1.45;;;9.60;99.90;;;;;;5089734;28;20138;-84
2023/03/22 03:41:11;;;;;;;8.55;2.22;;;9.70;99.90;;;;;;5088823;28;20052;-83
2023/03/22 03:43:58;;;;;;;11.63;2.00;;;9.60;99.90;;;;;;5071363;28;20056;-82
2023/03/22 03:46:45;;;;;;;11.98;2.45;;;9.60;99.90;;;;;;5089599;28;20082;-82
2023/03/22 03:49:31;;;;;;;13.45;2.65;;;9.60;99.90;;;;;;5089484;28;20130;-82
2023/03/22 03:52:18;;;;;;;16.33;2.85;;;9.70;99.90;;;;;;5070436;28;20134;-82
2023/03/22 03:55:04;;;;;;;22.00;4.68;;;9.70;99.90;;;;;;5089396;28;20044;-82
2023/03/22 03:57:50;;;;;;;14.98;2.28;;;9.60;99.90;;;;;;5073778;28;20048;-82
2023/03/22 04:00:37;;;;;;;10.70;2.50;;;9.70;99.90;;;;;;5071326;28;20507;-83
2023/03/22 04:03:23;;;;;;;14.02;2.53;;;9.60;99.90;;;;;;5090162;28;20559;-84
2023/03/22 04:06:09;;;;;;;13.40;2.20;;;9.70;99.90;;;;;;5077619;28;20072;-84
2023/03/22 04:08:56;;;;;;;13.95;2.60;;;9.70;99.90;;;;;;5074131;28;20504;-85
2023/03/22 04:11:43;;;;;;;14.10;2.40;;;9.70;99.90;;;;;;5091794;28;20048;-84
2023/03/22 04:14:29;;;;;;;11.80;2.22;;;9.60;99.90;;;;;;5091878;28;20043;-83
2023/03/22 04:17:15;;;;;;;11.77;2.92;;;9.60;99.90;;;;;;5093430;28;20067;-85
2023/03/22 04:20:03;;;;;;;14.07;2.60;;;9.60;99.90;;;;;;5092892;28;20094;-83
2023/03/22 04:22:49;;;;;;;11.88;3.05;;;9.70;99.90;;;;;;5077864;28;20059;-85
2023/03/22 04:25:36;;;;;;;12.70;2.40;;;9.60;99.90;;;;;;5093276;28;20060;-85
2023/03/22 04:28:22;;;;;;;17.05;3.45;;;9.60;99.90;;;;;;5094429;28;20047;-82
2023/03/22 04:31:09;;;;;;;15.23;3.28;;;9.60;99.90;;;;;;5091660;28;20052;-82
2023/03/22 04:33:56;;;;;;;8.38;2.08;;;9.60;99.90;;;;;;5092720;28;20047;-81
2023/03/22 04:36:43;;;;;;;10.82;2.58;;;9.60;99.90;;;;;;5092835;28;20059;-81
2023/03/22 04:39:30;;;;;;;14.07;2.30;;;9.60;99.90;;;;;;5092581;28;20052;-82
2023/03/22 04:42:16;;;;;;;9.15;2.22;;;9.50;99.90;;;;;;5091372;28;20048;-83
2023/03/22 04:45:02;;;;;;;14.60;2.40;;;9.50;99.90;;;;;;5091806;28;20056;-82
2023/03/22 04:47:49;;;;;;;11.90;2.58;;;9.50;99.90;;;;;;5074354;28;20060;-82
2023/03/22 04:50:35;;;;;;;13.80;2.80;;;9.50;99.90;;;;;;5092740;28;20063;-82
2023/03/22 04:53:26;;;;;;;11.98;2.45;;;9.50;99.90;;;;;;5092364;28;20050;-81
2023/03/22 04:56:13;;;;;;;10.88;2.85;;;9.50;99.90;;;;;;5092108;28;20060;-84
2023/03/22 04:59:00;;;;;;;17.70;3.50;;;9.50;99.90;;;;;;5093523;28;20040;-84
2023/03/22 05:01:47;;;;;;;11.90;3.15;;;9.50;99.90;;;;;;5096348;28;20085;-86
2023/03/22 05:04:33;;;;;;;12.80;3.33;;;9.50;99.90;;;;;;5095358;28;20048;-83
2023/03/22 05:07:21;;;;;;;9.48;3.53;;;9.50;99.90;;;;;;5077597;28;20040;-83
2023/03/22 05:10:08;;;;;;;14.68;3.58;;;9.50;99.90;;;;;;5080045;28;20048;-82
2023/03/22 05:12:54;;;;;;;11.43;4.38;;;9.60;99.90;;;;;;5092961;28;20051;-83
2023/03/22 05:15:44;;;;;;;14.18;4.22;;;9.50;99.90;;;;;;5077350;28;20051;-84
2023/03/22 05:18:31;;;;;;;10.73;3.63;;;9.50;99.90;;;;;;5093257;28;20086;-85
2023/03/22 05:21:20;;;;;;;12.27;3.70;;;9.50;99.90;;;;;;5091014;28;20052;-83
2023/03/22 05:24:07;;;;;;;13.27;3.58;;;9.60;99.90;;;;;;5072463;28;20070;-83
2023/03/22 05:26:53;;;;;;;12.70;4.55;;;9.60;99.90;;;;;;5053019;28;20055;-83
2023/03/22 05:29:43;;;;;;;13.60;5.57;;;9.60;99.90;;;;;;5072494;28;20051;-84
2023/03/22 05:32:29;;;;;;;15.88;4.25;;;9.60;99.90;;;;;;5070338;28;20500;-83
2023/03/22 05:35:15;;;;;;;14.02;4.47;;;9.60;99.90;;;;;;5071157;28;20105;-83
2023/03/22 05:38:02;;;;;;;19.23;5.03;;;9.60;99.90;;;;;;5071665;28;20040;-81
2023/03/22 05:40:48;;;;;;;15.63;4.93;;;9.70;99.90;;;;;;5091735;28;20139;-81
2023/03/22 05:43:35;;;;;;;18.55;4.95;;;9.60;99.90;;;;;;5091502;28;20063;-81
2023/03/22 05:46:21;;;;;;;15.20;5.57;;;9.60;99.90;;;;;;5091174;28;20158;-86
2023/03/22 05:49:07;;;;;;;13.98;4.75;;;9.60;99.90;;;;;;5091229;28;20090;-84
2023/03/22 05:51:53;;;;;;;15.85;4.80;;;9.60;99.90;;;;;;5091551;28;20109;-82
2023/03/22 05:54:39;;;;;;;14.85;6.00;;;9.60;99.90;;;;;;5091199;28;20052;-81
2023/03/22 05:57:26;;;;;;;13.80;5.05;;;9.60;99.90;;;;;;5090090;28;20052;-84
2023/03/22 06:00:15;;;;;;;20.05;6.32;;;9.70;99.90;;;;;;5074421;28;20057;-85
2023/03/22 06:03:04;;;;;;;14.45;6.15;;;9.70;99.90;;;;;;5071883;28;20056;-84
2023/03/22 06:05:50;;;;;;;16.35;6.20;;;9.80;99.90;;;;;;5090061;28;20052;-84
2023/03/22 06:08:38;;;;;;;13.40;6.45;;;9.80;99.90;;;;;;5090826;28;20415;-86
2023/03/22 06:11:24;;;;;;;14.23;6.05;;;9.80;99.90;;;;;;5090650;28;20055;-83
2023/03/22 06:14:10;;;;;;;22.98;6.55;;;9.80;99.90;;;;;;5073246;28;20055;-82
2023/03/22 06:16:56;;;;;;;16.23;6.30;;;9.80;99.90;;;;;;5090698;28;20134;-83
2023/03/22 06:19:42;;;;;;;15.05;6.95;;;9.80;99.90;;;;;;5090246;28;20191;-85
2023/03/22 06:22:30;;;;;;;19.85;7.32;;;9.70;99.90;;;;;;5057903;28;20052;-84
2023/03/22 06:25:16;;;;;;;20.02;7.82;;;9.70;99.90;;;;;;5091364;28;20055;-84
2023/03/22 06:28:02;;;;;;;16.83;7.70;;;9.80;99.90;;;;;;5090703;28;20104;-81
2023/03/22 06:30:49;;;;;;;18.83;7.88;;;9.70;99.90;;;;;;5090938;28;20052;-85
2023/03/22 06:33:36;;;;;;;17.35;7.80;;;9.70;99.90;;;;;;5089370;28;20059;-85
2023/03/22 06:36:23;;;;;;;21.83;10.02;;;9.70;99.90;;;;;;5091191;28;20052;-82
2023/03/22 06:39:09;;;;;;;19.08;8.68;;;9.70;99.90;;;;;;5090332;28;20051;-82
2023/03/22 06:41:56;;;;;;;20.05;8.98;;;9.70;99.90;;;;;;5089510;28;20143;-82
2023/03/22 06:44:45;;;;;;;24.08;8.73;;;9.70;99.90;;;;;;5091376;28;20066;-81
2023/03/22 06:47:31;;;;;;;20.58;7.95;;;9.70;99.90;;;;;;5089827;28;20044;-82
2023/03/22 06:50:17;;;;;;;20.05;8.63;;;9.70;99.90;;;;;;5089284;28;20044;-85
2023/03/22 06:53:04;;;;;;;19.80;8.85;;;9.70;99.90;;;;;;5090918;28;20122;-87
2023/03/22 06:55:51;;;;;;;20.50;8.93;;;9.80;99.90;;;;;;5089821;28;20047;-86
2023/03/22 06:58:37;;;;;;;18.63;9.27;;;9.80;99.90;;;;;;5089665;28;20487;-83
2023/03/22 07:01:24;;;;;;;21.20;9.15;;;9.80;99.90;;;;;;5089301;28;20134;-84
2023/03/22 07:04:10;;;;;;;22.27;9.70;;;9.80;99.90;;;;;;5088989;28;20571;-84
2023/03/22 07:06:56;;;;;;;18.63;8.75;;;9.80;99.90;;;;;;5091066;28;20134;-84
2023/03/22 07:09:42;;;;;;;24.33;9.63;;;9.90;99.90;;;;;;5090849;28;20213;-81
2023/03/22 07:12:28;;;;;;;23.27;9.85;;;9.90;99.90;;;;;;5091312;28;20059;-84
2023/03/22 07:15:16;;;;;;;22.60;8.82;;;9.90;99.90;;;;;;5091367;28;20048;-84
2023/03/22 07:18:02;;;;;;;20.25;9.02;;;10.00;99.90;;;;;;5094597;28;20055;-85
2023/03/22 07:20:48;;;;;;;19.60;8.55;;;10.00;99.90;;;;;;5061419;28;20056;-83
2023/03/22 07:23:34;;;;;;;23.08;8.95;;;10.00;99.90;;;;;;5061466;28;20124;-83
2023/03/22 07:26:20;;;;;;;17.90;9.63;;;10.00;99.90;;;;;;5092922;28;20087;-84
2023/03/22 07:29:07;;;;;;;22.27;9.50;;;10.10;99.90;;;;;;5078771;28;20100;-82
2023/03/22 07:31:53;;;;;;;16.00;9.27;;;10.10;99.90;;;;;;5075020;28;20063;-83
2023/03/22 07:34:39;;;;;;;20.40;8.88;;;10.10;99.90;;;;;;5090770;28;20040;-85
2023/03/22 07:37:25;;;;;;;24.33;9.05;;;10.20;99.90;;;;;;5072284;28;20053;-84
2023/03/22 07:40:12;;;;;;;24.63;9.77;;;10.20;99.90;;;;;;5073066;28;20076;-83
2023/03/22 07:42:58;;;;;;;29.15;9.20;;;10.20;99.90;;;;;;5072102;28;20047;-85
2023/03/22 07:45:44;;;;;;;29.80;10.70;;;10.30;99.90;;;;;;5068590;28;20040;-82
2023/03/22 07:48:31;;;;;;;19.17;8.82;;;10.40;99.90;;;;;;5070605;28;20147;-82
2023/03/22 07:51:18;;;;;;;24.38;9.30;;;10.40;99.90;;;;;;5069806;28;20178;-82
2023/03/22 07:54:04;;;;;;;20.05;9.18;;;10.40;99.90;;;;;;5071635;28;20047;-81
2023/03/22 07:56:50;;;;;;;22.92;9.90;;;10.50;99.90;;;;;;5068656;28;20070;-82
2023/03/22 07:59:36;;;;;;;19.83;8.95;;;10.50;99.90;;;;;;5070949;28;20424;-82
2023/03/22 08:02:22;;;;;;;18.83;8.90;;;10.50;99.90;;;;;;5087497;28;20568;-84
2023/03/22 08:05:09;;;;;;;19.02;9.38;;;10.50;99.90;;;;;;5088321;28;20048;-86
2023/03/22 08:07:55;;;;;;;18.30;8.93;;;10.60;99.90;;;;;;5088636;28;20130;-82
2023/03/22 08:10:41;;;;;;;20.90;7.78;;;10.70;99.90;;;;;;5089331;28;20044;-82
2023/03/22 08:13:30;;;;;;;21.38;8.50;;;10.70;99.90;;;;;;5088860;28;20412;-82
2023/03/22 08:16:17;;;;;;;19.40;6.93;;;10.70;99.90;;;;;;5088530;28;20837;-85
2023/03/22 08:19:03;;;;;;;26.58;10.05;;;10.70;99.90;;;;;;5088838;28;20109;-84
2023/03/22 08:21:49;;;;;;;16.33;7.30;;;10.80;99.90;;;;;;5088851;28;20044;-83
2023/03/22 08:24:35;;;;;;;18.42;6.15;;;10.80;99.90;;;;;;5089680;28;20251;-83
2023/03/22 08:27:21;;;;;;;18.15;6.57;;;10.90;99.90;;;;;;5088544;28;20504;-83
2023/03/22 08:30:08;;;;;;;15.05;7.28;;;10.90;99.90;;;;;;5073610;28;20044;-84
2023/03/22 08:32:54;;;;;;;12.15;5.38;;;10.90;99.90;;;;;;5070311;28;20419;-82
2023/03/22 08:35:41;;;;;;;19.55;6.28;;;11.00;99.90;;;;;;5088946;28;20476;-81
2023/03/22 08:38:27;;;;;;;19.13;6.85;;;11.00;99.90;;;;;;5088888;28;20494;-84
2023/03/22 08:41:14;;;;;;;15.40;6.25;;;11.00;99.90;;;;;;5071237;28;20056;-84
2023/03/22 08:44:01;;;;;;;15.73;6.45;;;11.00;99.90;;;;;;5087855;28;20048;-85
2023/03/22 08:46:47;;;;;;;16.63;6.82;;;11.00;99.90;;;;;;5088154;28;20488;-84
2023/03/22 08:49:33;;;;;;;18.00;6.05;;;11.10;99.90;;;;;;5089684;28;20584;-85
2023/03/22 08:52:20;;;;;;;20.85;6.05;;;11.10;99.90;;;;;;5092262;28;20044;-85
2023/03/22 08:55:07;;;;;;;20.15;5.78;;;11.00;99.90;;;;;;5093402;28;20131;-84
2023/03/22 08:57:56;;;;;;;23.05;7.00;;;11.00;99.90;;;;;;5091823;28;20499;-85
2023/03/22 09:00:42;;;;;;;18.67;6.90;;;10.90;99.90;;;;;;5092519;28;20091;-82
2023/03/22 09:03:28;;;;;;;17.75;5.78;;;10.90;99.90;;;;;;5092423;28;20056;-82
2023/03/22 09:06:15;;;;;;;16.95;5.65;;;10.80;99.90;;;;;;5091517;28;20484;-85
2023/03/22 09:09:02;;;;;;;12.10;4.90;;;10.80;99.90;;;;;;5093847;28;20502;-82
2023/03/22 09:11:48;;;;;;;20.88;5.95;;;10.70;99.90;;;;;;5095511;28;20076;-82
2023/03/22 09:14:34;;;;;;;16.23;5.28;;;10.60;99.90;;;;;;5093805;28;20526;-83
2023/03/22 09:17:20;;;;;;;19.05;5.93;;;10.60;99.90;;;;;;5092226;28;20094;-83
2023/03/22 09:20:07;;;;;;;14.93;5.30;;;10.50;99.90;;;;;;5090498;28;20551;-85
2023/03/22 09:22:53;;;;;;;16.95;5.57;;;10.40;99.90;;;;;;5091222;28;20044;-83
2023/03/22 09:25:42;;;;;;;16.38;4.82;;;10.40;99.90;;;;;;5091789;28;20048;-85
2023/03/22 09:28:29;;;;;;;17.25;5.47;;;10.40;99.90;;;;;;5074901;28;20562;-82
2023/03/22 09:31:15;;;;;;;15.15;4.40;;;10.40;99.90;;;;;;5075937;28;20060;-84
2023/03/22 09:34:01;;;;;;;15.52;5.30;;;10.30;99.90;;;;;;5090262;28;20052;-84
2023/03/22 09:36:48;;;;;;;15.23;4.50;;;10.30;99.90;;;;;;5091918;28;20048;-82
2023/03/22 09:39:37;;;;;;;21.60;4.90;;;10.30;99.90;;;;;;5073753;28;20058;-85
2023/03/22 09:42:27;;;;;;;17.92;5.18;;;10.40;99.90;;;;;;5092155;28;20050;-84
2023/03/22 09:45:21;;;;;;;16.77;4.78;;;10.30;99.90;;;;;;5090839;28;20055;-84
2023/03/22 09:48:15;;;;;;;12.55;4.75;;;10.30;99.90;;;;;;5090251;28;20456;-85
2023/03/22 09:51:04;;;;;;;13.05;4.50;;;10.30;99.90;;;;;;5090165;28;20493;-83
2023/03/22 09:53:50;;;;;;;15.65;3.95;;;10.20;99.90;;;;;;5091448;28;20117;-83
2023/03/22 09:56:37;;;;;;;13.02;3.90;;;10.20;99.90;;;;;;5093000;28;20496;-87
2023/03/22 09:59:38;;;;;;;11.70;4.00;;;10.20;99.90;;;;;;5090741;28;20059;-86
2023/03/22 10:02:27;;;;;;;11.57;4.32;;;10.20;99.90;;;;;;5089870;28;20457;-83
2023/03/22 10:05:29;;;;;;;12.15;4.20;;;10.20;99.90;;;;;;5091060;28;20138;-83
2023/03/22 10:08:39;;;;;;;18.50;4.47;;;10.10;99.90;;;;;;5076210;28;20146;-83
2023/03/22 10:12:03;;;;;;;13.68;4.65;;;10.10;99.90;;;;;;5091272;28;20424;-86
2023/03/22 10:14:57;;;;;;;13.48;4.68;;;10.00;99.90;;;;;;5091370;28;20133;-86
2023/03/22 10:17:52;;;;;;;17.02;6.47;;;10.00;99.90;;;;;;5090278;28;20561;-84
2023/03/22 10:20:54;;;;;;;11.20;3.85;;;9.90;99.90;;;;;;5090761;28;20048;-85
2023/03/22 10:23:43;;;;;;;18.38;4.15;;;9.90;99.90;;;;;;5089559;28;20528;-85
2023/03/22 10:26:38;;;;;;;13.68;4.22;;;9.90;99.90;;;;;;5090989;28;20044;-85
2023/03/22 10:29:36;;;;;;;12.63;3.97;;;9.80;99.90;;;;;;5073418;28;20044;-85
2023/03/22 10:32:28;;;;;;;14.73;3.88;;;9.80;99.90;;;;;;5072236;28;20098;-81
2023/03/22 10:35:15;;;;;;;9.43;3.70;;;9.80;99.90;;;;;;5090331;28;20044;-83
2023/03/22 10:38:06;;;;;;;9.05;3.90;;;9.80;99.90;;;;;;5072325;28;20052;-83
2023/03/22 10:40:55;;;;;;;8.05;3.55;;;9.70;99.90;;;;;;5089681;28;20089;-83
2023/03/22 10:43:42;;;;;;;11.40;3.65;;;9.70;99.90;;;;;;5091778;28;20436;-82
2023/03/22 10:46:35;;;;;;;11.77;4.60;;;9.80;99.90;;;;;;5071579;28;20056;-83
2023/03/22 10:49:28;;;;;;;11.85;4.05;;;9.70;99.90;;;;;;5074677;28;20052;-82
2023/03/22 10:52:29;;;;;;;7.75;4.22;;;9.80;99.90;;;;;;5071649;28;20056;-80
2023/03/22 10:55:16;;;;;;;7.53;3.63;;;9.80;99.90;;;;;;5090541;28;20056;-83
2023/03/22 10:58:20;;;;;;;14.35;4.00;;;9.80;99.90;;;;;;5090030;28;20087;-82
2023/03/22 11:01:11;;;;;;;12.35;4.30;;;9.80;99.90;;;;;;5096542;28;20060;-87
2023/03/22 11:04:02;;;;;;;8.10;3.30;;;9.90;99.90;;;;;;5094961;28;20105;-84
2023/03/22 11:06:50;;;;;;;10.88;3.40;;;9.90;99.90;;;;;;5096351;28;20048;-87
2023/03/22 11:09:36;;;;;;;12.77;3.72;;;9.90;99.90;;;;;;5098491;28;20116;-86
2023/03/22 11:12:22;;;;;;;9.45;3.95;;;9.90;99.90;;;;;;5093999;28;20135;-87
2023/03/22 11:15:30;;;;;;;11.00;4.53;;;9.90;99.90;;;;;;5076404;28;20098;-86
2023/03/22 11:18:18;;;;;;;14.18;3.60;;;10.00;99.90;;;;;;5078935;28;20044;-86
2023/03/22 11:21:09;;;;;;;10.82;4.28;;;10.00;99.90;;;;;;5091111;28;20047;-85
2023/03/22 11:23:59;;;;;;;11.27;4.22;;;10.00;99.90;;;;;;5090089;28;20040;-84
2023/03/22 11:27:17;;;;;;;15.30;4.55;;;10.00;99.90;;;;;;5093398;28;20052;-86
2023/03/22 11:30:25;;;;;;;10.93;4.03;;;10.00;99.90;;;;;;5079081;28;20101;-84
2023/03/22 11:33:20;;;;;;;14.57;5.25;;;10.10;99.90;;;;;;5089345;28;20075;-86
2023/03/22 11:36:17;;;;;;;;;;;10.10;99.90;;;;;;5090172;28;20055;-84
2023/03/22 11:39:06;;;;;;;9.07;3.72;;;10.10;99.90;;;;;;5089484;28;20368;-86
2023/03/22 11:42:02;;;;;;;11.68;4.50;;;10.10;99.90;;;;;;5088653;28;20058;-84
2023/03/22 11:44:48;;;;;;;12.82;4.15;;;10.10;99.90;;;;;;5091636;28;20403;-85
2023/03/22 11:47:40;;;;;;;14.00;4.63;;;10.10;99.90;;;;;;5070695;28;20515;-85
2023/03/22 11:50:33;;;;;;;14.77;4.65;;;10.10;99.90;;;;;;5088535;28;20048;-81
2023/03/22 11:53:23;;;;;;;10.18;4.00;;;10.10;99.90;;;;;;5089387;28;20084;-85
2023/03/22 11:56:14;;;;;;;13.85;5.00;;;10.20;99.90;;;;;;5089711;28;20130;-83
2023/03/22 11:59:07;;;;;;;11.52;3.88;;;10.20;99.90;;;;;;5089582;28;20173;-85
2023/03/22 12:01:56;;;;;;;12.63;3.95;;;10.20;99.90;;;;;;5090925;28;20205;-83
2023/03/22 12:04:46;;;;;;;12.90;4.20;;;10.10;99.90;;;;;;5089138;28;20044;-83
2023/03/22 12:07:35;;;;;;;11.23;4.82;;;10.20;99.90;;;;;;5089276;28;20131;-83
2023/03/22 12:10:32;;;;;;;13.65;4.38;;;10.20;99.90;;;;;;5088547;28;20127;-86
2023/03/22 12:13:47;;;;;;;9.00;4.05;;;10.20;99.90;;;;;;5089066;28;20044;-86
2023/03/22 12:17:10;;;;;;;12.70;5.18;;;10.20;99.90;;;;;;5090872;28;20062;-84
2023/03/22 12:20:23;;;;;;;17.27;5.35;;;10.30;99.90;;;;;;5078122;28;20062;-85
2023/03/22 12:23:21;;;;;;;16.10;5.45;;;10.20;99.90;;;;;;5071152;28;20051;-85
2023/03/22 12:26:28;;;;;;;22.50;5.18;;;10.20;99.90;;;;;;5096712;28;20091;-84
2023/03/22 12:29:17;;;;;;;17.35;5.72;;;10.20;99.90;;;;;;5095061;28;20048;-86
2023/03/22 12:32:37;;;;;;;11.48;4.97;;;10.20;99.90;;;;;;5074338;28;20063;-85
2023/03/22 12:35:27;;;;;;;10.73;5.60;;;10.20;99.90;;;;;;5060569;28;20048;-83
2023/03/22 12:38:26;;;;;;;14.20;5.30;;;10.20;99.90;;;;;;5073702;28;20055;-86
2023/03/22 12:41:23;;;;;;;11.57;5.55;;;10.20;99.90;;;;;;5093098;28;20109;-84
2023/03/22 12:44:17;;;;;;;14.50;5.22;;;10.30;99.90;;;;;;5092277;28;20052;-85
2023/03/22 12:47:05;;;;;;;16.65;5.95;;;10.30;99.90;;;;;;5092940;28;20052;-86
2023/03/22 12:50:11;;;;;;;11.48;5.93;;;10.30;99.90;;;;;;5092186;28;20040;-85
2023/03/22 12:52:57;;;;;;;15.20;5.78;;;10.30;99.90;;;;;;5074432;28;20786;-84
2023/03/22 12:55:46;;;;;;;11.57;5.45;;;10.30;99.90;;;;;;5091672;28;20137;-87
2023/03/22 12:58:32;;;;;;;12.40;5.70;;;10.30;99.90;;;;;;5091945;28;20052;-84
2023/03/22 13:01:24;;;;;;;11.30;5.68;;;10.20;99.90;;;;;;5074308;28;20052;-83
2023/03/22 13:04:36;;;;;;;12.18;5.60;;;10.20;99.90;;;;;;5082747;28;20048;-84
2023/03/22 13:07:37;;;;;;;13.77;6.70;;;10.10;99.90;;;;;;5059518;28;20134;-86
2023/03/22 13:10:29;;;;;;;16.40;5.97;;;10.10;99.90;;;;;;5092597;28;20048;-83
2023/03/22 13:13:30;;;;;;;13.95;6.78;;;10.10;99.90;;;;;;5092122;28;20047;-83
2023/03/22 13:16:21;;;;;;;18.63;6.75;;;10.00;99.90;;;;;;5091522;28;20132;-83
2023/03/22 13:19:25;;;;;;;16.33;6.55;;;10.00;99.90;;;;;;5092518;28;20056;-85
2023/03/22 13:22:14;;;;;;;14.88;6.47;;;10.00;99.90;;;;;;5091321;28;20055;-83
2023/03/22 13:25:13;;;;;;;14.27;6.07;;;10.00;99.90;;;;;;5090708;28;20388;-85
2023/03/22 13:28:28;;;;;;;10.77;5.50;;;10.00;99.90;;;;;;5092040;28;20063;-83
2023/03/22 13:31:37;;;;;;;19.17;6.55;;;10.00;99.90;;;;;;5091986;28;20051;-86
2023/03/22 13:34:50;;;;;;;15.07;6.55;;;10.00;99.90;;;;;;5093171;28;20296;-83
2023/03/22 13:37:48;;;;;;;17.02;6.25;;;10.00;99.90;;;;;;5090125;28;20127;-81
2023/03/22 13:40:50;;;;;;;12.43;6.15;;;10.00;99.90;;;;;;5072466;28;20682;-82
2023/03/22 13:43:49;;;;;;;13.98;6.90;;;10.00;99.90;;;;;;5091865;28;20513;-82
2023/03/22 13:46:35;;;;;;;9.60;5.80;;;10.00;99.90;;;;;;5091200;28;20131;-82
2023/03/22 13:49:48;;;;;;;13.02;5.60;;;10.00;99.90;;;;;;5090749;28;20046;-84
2023/03/22 13:52:41;;;;;;;10.38;5.60;;;10.00;99.90;;;;;;5092196;28;20050;-84
2023/03/22 13:55:50;;;;;;;14.50;6.05;;;10.00;99.90;;;;;;5063216;28;20143;-82
2023/03/22 13:58:50;;;;;;;12.40;5.80;;;10.00;99.90;;;;;;5072586;28;20044;-82
2023/03/22 14:01:46;;;;;;;13.63;6.32;;;10.00;99.90;;;;;;5059461;28;20138;-86
2023/03/22 14:04:41;;;;;;;12.18;6.82;;;10.00;99.90;;;;;;5091055;28;20102;-82
2023/03/22 14:07:39;;;;;;;16.38;7.28;;;10.00;99.90;;;;;;5091130;28;20055;-83
2023/03/22 14:10:44;;;;;;;13.65;7.30;;;9.90;99.90;;;;;;5090352;28;20149;-83
2023/03/22 14:13:35;;;;;;;11.70;7.10;;;9.90;99.90;;;;;;5090338;28;20515;-85
2023/03/22 14:16:45;;;;;;;12.60;7.50;;;9.90;99.90;;;;;;5092197;28;20052;-83
2023/03/22 14:19:33;;;;;;;15.50;7.43;;;9.90;99.90;;;;;;5073543;28;20055;-84
2023/03/22 14:22:31;;;;;;;21.40;7.80;;;9.90;99.90;;;;;;5099087;28;20050;-82
2023/03/22 14:25:21;;;;;;;14.85;8.70;;;10.00;99.90;;;;;;5097948;28;20507;-83
2023/03/22 14:28:07;;;;;;;16.80;9.68;;;10.00;99.90;;;;;;5092833;28;20051;-84
2023/03/22 14:30:53;;;;;;;18.92;9.27;;;10.00;99.90;;;;;;5092843;28;20044;-82
2023/03/22 14:33:42;;;;;;;19.42;8.40;;;10.00;99.90;;;;;;5092475;28;20048;-86
2023/03/22 14:36:36;;;;;;;13.00;7.90;;;10.00;99.90;;;;;;5090901;28;20464;-84
2023/03/22 14:39:30;;;;;;;21.15;9.75;;;10.00;99.90;;;;;;5072663;28;20063;-87
2023/03/22 14:42:21;;;;;;;23.35;8.88;;;10.00;99.90;;;;;;5089681;28;20052;-86
2023/03/22 14:45:17;;;;;;;12.63;7.65;;;10.00;99.90;;;;;;5089859;28;20051;-83
2023/03/22 14:48:22;;;;;;;13.70;8.02;;;10.00;99.90;;;;;;5072640;28;20054;-80